地図

経路データ

SID SEASON NUMBER BASIN SUBBASIN NAME ISO_TIME NATURE LAT LON WMO_WIND WMO_PRES WMO_AGENCY TRACK_TYPE DIST2LAND LANDFALL IFLAG USA_AGENCY USA_ATCF_ID USA_LAT USA_LON USA_RECORD USA_STATUS USA_WIND USA_PRES USA_SSHS USA_R34_NE USA_R34_SE USA_R34_SW USA_R34_NW USA_R50_NE USA_R50_SE USA_R50_SW USA_R50_NW USA_R64_NE USA_R64_SE USA_R64_SW USA_R64_NW USA_POCI USA_ROCI USA_RMW USA_EYE TOKYO_LAT TOKYO_LON TOKYO_GRADE TOKYO_WIND TOKYO_PRES TOKYO_R50_DIR TOKYO_R50_LONG TOKYO_R50_SHORT TOKYO_R30_DIR TOKYO_R30_LONG TOKYO_R30_SHORT TOKYO_LAND CMA_LAT CMA_LON CMA_CAT CMA_WIND CMA_PRES HKO_LAT HKO_LON HKO_CAT HKO_WIND HKO_PRES NEWDELHI_LAT NEWDELHI_LON NEWDELHI_GRADE NEWDELHI_WIND NEWDELHI_PRES NEWDELHI_CI NEWDELHI_DP NEWDELHI_POCI REUNION_LAT REUNION_LON REUNION_TYPE REUNION_WIND REUNION_PRES REUNION_TNUM REUNION_CI REUNION_RMW REUNION_R34_NE REUNION_R34_SE REUNION_R34_SW REUNION_R34_NW REUNION_R50_NE REUNION_R50_SE REUNION_R50_SW REUNION_R50_NW REUNION_R64_NE REUNION_R64_SE REUNION_R64_SW REUNION_R64_NW BOM_LAT BOM_LON BOM_TYPE BOM_WIND BOM_PRES BOM_TNUM BOM_CI BOM_RMW BOM_R34_NE BOM_R34_SE BOM_R34_SW BOM_R34_NW BOM_R50_NE BOM_R50_SE BOM_R50_SW BOM_R50_NW BOM_R64_NE BOM_R64_SE BOM_R64_SW BOM_R64_NW BOM_ROCI BOM_POCI BOM_EYE BOM_POS_METHOD BOM_PRES_METHOD NADI_LAT NADI_LON NADI_CAT NADI_WIND NADI_PRES WELLINGTON_LAT WELLINGTON_LON WELLINGTON_WIND WELLINGTON_PRES DS824_LAT DS824_LON DS824_STAGE DS824_WIND DS824_PRES TD9636_LAT TD9636_LON TD9636_STAGE TD9636_WIND TD9636_PRES TD9635_LAT TD9635_LON TD9635_WIND TD9635_PRES TD9635_ROCI NEUMANN_LAT NEUMANN_LON NEUMANN_CLASS NEUMANN_WIND NEUMANN_PRES MLC_LAT MLC_LON MLC_CLASS MLC_WIND MLC_PRES USA_GUST BOM_GUST BOM_GUST_PER REUNION_GUST REUNION_GUST_PER USA_SEAHGT USA_SEARAD_NE USA_SEARAD_SE USA_SEARAD_SW USA_SEARAD_NW STORM_SPEED STORM_DIR
1966080S10100 1966 21 SI WA NELLIE 1966-03-21 04:00:00 NR -10.0000 100.000 main 675 675 __________O___ -1 -10.0000 100.000 1 25 20 270
1966080S10100 1966 21 SI WA NELLIE 1966-03-21 06:00:00 TS -9.99755 99.3098 main 730 730 O________OP___ jtwc_sh SH321966 -10.0000 99.3000 25 -1 -10.0000 99.3000 TC 25 -9.99510 99.3196 1 25 20 271
1966080S10100 1966 21 SI WA NELLIE 1966-03-21 09:00:00 TS -9.98068 98.2974 main 798 805 P________PP___ SH321966 -9.96562 98.2923 25 -1 -9.96562 98.2923 TC 25 -10.0008 98.3042 1 25 21 271
1966080S10100 1966 21 SI WA NELLIE 1966-03-21 10:00:00 TS -9.98492 97.8753 997 bom main 827 827 P_____O__PP___ SH321966 -9.96589 97.9591 25 -1 -10.0000 97.0000 997 -9.96589 97.9591 TC 25 -10.0097 97.9683 1 25 22 268
1966080S10100 1966 21 SI WA NELLIE 1966-03-21 12:00:00 TS -10.0143 97.2064 main 876 876 O_____P__OP_O_ jtwc_sh SH321966 -10.0000 97.3000 25 -1 -10.0202 96.7438 997 -10.0000 97.3000 TC 25 -10.0435 97.3022 1 25 -10.0000 97.0000 TC 35 997 18 264
1966080S10100 1966 21 SI WA NELLIE 1966-03-21 15:00:00 TS -10.1387 96.3455 main 951 951 P_____P__PP_P_ SH321966 -10.1547 96.3350 25 -1 -10.1268 96.2330 997 -10.1547 96.3350 TC 25 -10.1475 96.3212 1 25 -10.0746 96.6048 TC 35 997 17 261
1966080S10100 1966 21 SI WA NELLIE 1966-03-21 16:00:00 TS -10.1977 96.0774 997 bom main 975 975 P_____O__PO_P_ SH321966 -10.2289 96.0200 25 -1 -10.2000 96.0000 997 -10.2289 96.0200 TC 25 -10.2000 96.0000 1 25 -10.1083 96.4369 TC 35 997 12 247
1966080S10100 1966 21 SI WA NELLIE 1966-03-21 18:00:00 TS -10.3685 95.7862 main 1014 1014 O_____P__OP_O_ jtwc_sh SH321966 -10.4000 95.4000 25 -1 -10.4013 95.4226 997 -10.4000 95.4000 TC 25 -10.3348 95.3694 1 25 -10.2000 96.0000 TC 35 997 10 237
1966080S10100 1966 21 SI WA NELLIE 1966-03-21 19:00:00 TS -10.4777 95.6435 997 bom main 1037 1037 P_____O__PP_P_ SH321966 -10.4886 95.0760 25 -1 -10.5000 95.1000 997 -10.4886 95.0760 TC 25 -10.4157 95.0625 1 25 -10.2612 95.7191 TC 35 997 15 245
1966080S10100 1966 21 SI WA NELLIE 1966-03-21 21:00:00 TS -10.6898 95.0980 main 1090 1090 P_____P__PP_P_ SH321966 -10.6851 94.4402 25 -1 -10.6308 94.4387 997 -10.6851 94.4402 TC 25 -10.6004 94.4722 1 25 -10.4131 95.0726 TC 35 997 17 247
1966080S10100 1966 21 SI WA NELLIE 1966-03-21 22:00:00 TS -10.8113 94.8604 997 bom main 1110 1110 P_____O__PP_P_ SH321966 -10.7892 94.1394 25 -1 -10.7000 94.1000 997 -10.7892 94.1394 TC 25 -10.7025 94.1916 1 25 -10.5017 94.7349 TC 35 997 18 248
1966080S10100 1966 21 SI WA NELLIE 1966-03-22 00:00:00 TS -11.0332 94.2336 main 1164 1174 O_____P__OP_O_ jtwc_sh SH321966 -11.0000 93.6000 25 -1 -10.8868 93.3781 997 -11.0000 93.6000 TC 25 -10.9221 93.6665 1 25 -10.7000 94.1000 TC 35 997 19 249
1966080S10100 1966 21 SI WA NELLIE 1966-03-22 01:00:00 TS -11.1451 93.9607 997 bom main 1184 1184 P_____O__PP_P_ SH321966 -11.0919 93.3609 25 -1 -11.0000 93.1000 997 -11.0919 93.3609 TC 25 -11.0379 93.4248 1 25 -10.8024 93.8359 TC 35 997 16 244
1966080S10100 1966 21 SI WA NELLIE 1966-03-22 03:00:00 TS -11.3764 93.5104 main 1239 1239 P_____P__PP_P_ SH321966 -11.2772 92.9523 25 -1 -11.2611 92.8698 997 -11.2772 92.9523 TC 25 -11.2777 92.9901 1 25 -11.0272 93.3675 TC 35 997 14 241
1966080S10100 1966 21 SI WA NELLIE 1966-03-22 04:00:00 TS -11.4949 93.3178 997 bom main 1260 1260 P_____O__PO_P_ SH321966 -11.3761 92.7811 25 -1 -11.4000 92.8000 997 -11.3761 92.7811 TC 25 -11.4000 92.8000 1 25 -11.1477 93.1612 TC 35 997 13 236
1966080S10100 1966 21 SI WA NELLIE 1966-03-22 06:00:00 TS -11.7343 92.9705 main 1295 1311 O_____P__OP_O_ jtwc_sh SH321966 -11.6000 92.5000 25 -1 -11.6667 92.5388 997 -11.6000 92.5000 TC 25 -11.6422 92.4958 1 25 -11.4000 92.8000 TC 35 997 12 234
1966080S10100 1966 21 SI WA NELLIE 1966-03-22 07:00:00 TS -11.8587 92.8116 997 bom main 1326 1326 P_____O__PP_P_ SH321966 -11.7406 92.3876 25 -1 -11.8000 92.4000 997 -11.7406 92.3876 TC 25 -11.7682 92.3718 1 25 -11.5301 92.6276 TC 35 996 11 228
1966080S10100 1966 21 SI WA NELLIE 1966-03-22 09:00:00 TS -12.1119 92.5384 main 1362 1362 P_____P__PP_P_ SH321966 -12.0498 92.2198 25 -1 -12.0693 92.1230 996 -12.0498 92.2198 TC 25 -12.0257 92.1661 1 25 -11.7998 92.3325 TC 35 996 11 225
1966080S10100 1966 21 SI WA NELLIE 1966-03-22 10:00:00 TS -12.2377 92.4194 996 bom main 1377 1377 P_____O__PP_P_ SH321966 -12.2072 92.1497 25 -1 -12.2000 92.0000 996 -12.2072 92.1497 TC 25 -12.1556 92.0790 1 25 -11.9357 92.2079 TC 35 996 10 221
1966080S10100 1966 21 SI WA NELLIE 1966-03-22 12:00:00 TS -12.4805 92.2135 main 1417 1417 O_____P__OP_O_ jtwc_sh SH321966 -12.5000 92.0000 25 -1 -12.4497 91.9033 996 -12.5000 92.0000 TC 25 -12.4138 91.9221 1 25 -12.2000 92.0000 TC 35 996 9 221
1966080S10100 1966 21 SI WA NELLIE 1966-03-22 15:00:00 TS -12.8114 91.9050 main 1463 1463 P_____P__PP_P_ SH321966 -12.8300 91.6724 25 -1 -12.7935 91.7452 996 -12.8300 91.6724 TC 25 -12.7843 91.6885 1 25 -12.5872 91.8222 TC 35 996 9 223
1966080S10100 1966 21 SI WA NELLIE 1966-03-22 16:00:00 TS -12.9148 91.7920 996 bom main 1478 1478 P_____O__PO_P_ SH321966 -12.9242 91.5520 25 -1 -12.9000 91.6000 996 -12.9242 91.5520 TC 25 -12.9000 91.6000 1 25 -12.7034 91.7667 TC 35 996 10 231
1966080S10100 1966 21 SI WA NELLIE 1966-03-22 18:00:00 TS -13.1148 91.5184 main 1515 1515 O_____P__OP_O_ jtwc_sh SH321966 -13.1000 91.3000 25 -1 -13.1271 91.0462 996 -13.1000 91.3000 TC 25 -13.1065 91.3196 1 22 -12.9000 91.6000 TC 35 996 10 235
1966080S10100 1966 21 SI WA NELLIE 1966-03-22 19:00:00 TS -13.2071 91.3669 996 bom main 1530 1530 P_____O__PP_P_ SH321966 -13.1864 91.1671 23 -1 -13.2000 90.8000 996 -13.1864 91.1671 TC 23 -13.2042 91.1721 1 21 -12.9599 91.4408 TC 35 995 10 239
1966080S10100 1966 21 SI WA NELLIE 1966-03-22 21:00:00 TS -13.3666 91.0878 main 1567 1567 P_____P__PP_P_ SH321966 -13.3500 90.8924 20 -1 -13.1688 90.5806 995 -13.3500 90.8924 TC 20 -13.3909 90.8729 1 18 -13.0429 91.0573 TC 37 995 9 239
1966080S10100 1966 21 SI WA NELLIE 1966-03-22 22:00:00 TS -13.4514 90.9545 995 bom main 1582 1582 P_____O__PP_P_ SH321966 -13.4309 90.7562 18 -1 -13.2000 90.5000 995 -13.4309 90.7562 TC 18 -13.4807 90.7254 1 17 -13.0825 90.8571 TC 38 995 10 232
1966080S10100 1966 21 SI WA NELLIE 1966-03-23 00:00:00 TS -13.6649 90.6959 main 1619 1619 O_____P__OP_O_ jtwc_sh SH321966 -13.6000 90.5000 15 -1 -13.5990 90.2152 995 -13.6000 90.5000 TC 15 -13.6556 90.4448 1 14 -13.2000 90.5000 TC 40 995 10 227
1966080S10100 1966 21 SI WA NELLIE 1966-03-23 01:00:00 TS -13.7823 90.5846 995 bom main 1634 1634 P_____O__PP_P_ SH321966 -13.6969 90.3781 15 -1 -13.8000 90.1000 995 -13.6969 90.3781 TC 15 -13.7417 90.3159 1 13 -13.3099 90.3746 TC 40 994 9 221
1966080S10100 1966 21 SI WA NELLIE 1966-03-23 03:00:00 TS -13.9958 90.4062 main 1665 1665 P_____P__PP_P_ SH321966 -13.9000 90.1550 15 -1 -13.9471 90.0170 994 -13.9000 90.1550 TC 15 -13.9134 90.0914 1 11 -13.5773 90.1826 TC 40 994 8 217
1966080S10100 1966 21 SI WA NELLIE 1966-03-23 04:00:00 TS -14.0999 90.3334 994 bom main 1680 1680 P_____O__PO_P_ SH321966 -14.0025 90.0576 15 -1 -14.0000 90.0000 994 -14.0025 90.0576 TC 15 -14.0000 90.0000 1 10 -13.7219 90.1104 TC 40 994 7 211
1966080S10100 1966 21 SI WA NELLIE 1966-03-23 06:00:00 TS -14.3086 90.2119 main 1705 1705 O_____P__OP_O_ jtwc_sh SH321966 -14.2000 89.9000 15 -1 -14.1946 89.9333 993 -14.2000 89.9000 TC 15 -14.1830 89.8733 1 20 -14.0000 90.0000 TC 40 994 7 210
1966080S10100 1966 21 SI WA NELLIE 1966-03-23 07:00:00 TS -14.4013 90.1567 993 bom main 1714 1714 P_____O__PP_P_ SH321966 -14.2864 89.8359 22 -1 -14.3000 89.9000 993 -14.2864 89.8359 TC 22 -14.2746 89.8287 1 26 -14.1140 89.9442 TC 40 993 6 208
1966080S10100 1966 21 SI WA NELLIE 1966-03-23 09:00:00 TS -14.5728 90.0698 main 1738 1738 P_____P__PP_P_ SH321966 -14.4499 89.7474 37 0 -14.5026 89.8282 992 -14.4499 89.7474 TC 37 -14.4578 89.7716 1 37 -14.3225 89.8624 TC 42 993 6 204
1966080S10100 1966 21 SI WA NELLIE 1966-03-23 10:00:00 TS -14.6542 90.0379 992 bom main 1754 1754 P_____O__PP_P_ SH321966 -14.5308 89.7212 44 0 -14.6000 89.8000 992 -14.5308 89.7212 TC 44 -14.5495 89.7570 1 42 -14.4187 89.8345 TC 43 992 5 197
1966080S10100 1966 21 SI MM NELLIE 1966-03-23 12:00:00 TS -14.8121 89.9957 main 1763 1763 O_____P__OP_O_ jtwc_sh SH321966 -14.7000 89.7000 60 0 -14.7704 89.7796 991 -14.7000 89.7000 TC 60 -14.7330 89.7508 1 53 -14.6000 89.8000 TC 45 992 5 189
1966080S10100 1966 21 SI MM NELLIE 1966-03-23 15:00:00 TS -15.0585 89.9651 main 1791 1791 P_____P__PP_P_ SH321966 -15.0000 89.7199 65 1 -15.0120 89.7942 991 -15.0000 89.7199 TC 65 -15.0082 89.7826 1 69 -14.8500 89.7700 TC 45 991 5 186
1966080S10100 1966 21 SI MM NELLIE 1966-03-23 16:00:00 TS -15.1414 89.9641 991 bom main 1791 1791 P_____O__PO_P_ SH321966 -15.1025 89.7424 66 1 -15.1000 89.8000 991 -15.1025 89.7424 TC 66 -15.1000 89.8000 1 75 -14.9308 89.7733 TC 45 991 5 176
1966080S10100 1966 21 SI MM NELLIE 1966-03-23 18:00:00 TS -15.3082 89.9666 main 1809 1809 O_____P__OP_O_ jtwc_sh SH321966 -15.3000 89.8000 70 1 -15.2982 89.7833 990 -15.3000 89.8000 TC 70 -15.2755 89.8162 1 66 -15.1000 89.8000 TC 45 991 5 0
1966080S10100 1966 21 SI MM NELLIE 1966-03-23 19:00:00 TS -15.3894 89.9731 990 bom main 1819 1819 P_____O__PP_P_ SH321966 -15.3864 89.8276 65 1 -15.4000 89.8000 990 -15.3864 89.8276 TC 65 -15.3628 89.8309 1 62 -15.1969 89.8245 TC 45 990 5 170
1966080S10100 1966 21 SI WA NELLIE 1966-03-23 21:00:00 TS -15.5512 90.0081 main 1837 1837 P_____P__PP_P_ SH321966 -15.5500 89.8925 55 0 -15.6079 89.9382 989 -15.5500 89.8925 TC 55 -15.5385 89.8719 1 54 -15.4000 89.8924 TC 47 990 5 169
1966080S10100 1966 21 SI WA NELLIE 1966-03-23 22:00:00 TS -15.6316 90.0280 989 bom main 1837 1837 P_____O__PP_P_ SH321966 -15.6309 89.9279 50 0 -15.7000 90.0000 989 -15.6309 89.9279 TC 50 -15.6275 89.8975 1 50 -15.5025 89.9303 TC 48 989 5 170
1966080S10100 1966 21 SI WA NELLIE 1966-03-24 00:00:00 TS -15.7914 90.0564 main 1851 1851 O_____P__OP_O_ jtwc_sh SH321966 -15.8000 90.0000 40 0 -15.8309 90.0030 987 -15.8000 90.0000 TC 40 -15.8096 89.9571 1 41 -15.7000 90.0000 TC 50 989 5 172
1966080S10100 1966 21 SI WA NELLIE 1966-03-24 01:00:00 TS -15.8729 90.0658 987 bom main 1860 1860 P_____O__PP_P_ SH321966 -15.8917 90.0334 37 0 -15.9000 90.0000 987 -15.8917 90.0334 TC 37 -15.9034 89.9904 1 37 -15.7838 90.0146 TC 50 988 5 174
1966080S10100 1966 21 SI WA NELLIE 1966-03-24 03:00:00 TS -16.0492 90.0920 main 1869 1879 P_____P__PP_P_ SH321966 -16.0850 90.1000 32 -1 -16.0946 90.0533 987 -16.0850 90.1000 TC 32 -16.0983 90.0622 1 29 -15.9425 90.0352 TC 50 988 6 171
1966080S10100 1966 21 SI WA NELLIE 1966-03-24 04:00:00 TS -16.1436 90.1093 987 bom main 1879 1879 P_____O__PO_P_ SH321966 -16.1867 90.1334 30 -1 -16.2000 90.1000 987 -16.1867 90.1334 TC 30 -16.2000 90.1000 1 25 -16.0229 90.0486 TC 50 987 6 169
1966080S10100 1966 21 SI WA NELLIE 1966-03-24 06:00:00 TS -16.3454 90.1547 main 1892 1902 O_____P__OP_O_ jtwc_sh SH321966 -16.4000 90.2000 25 -1 -16.3921 90.2279 987 -16.4000 90.2000 TC 25 -16.4162 90.1641 1 23 -16.2000 90.1000 TC 50 987 6 167
1966080S10100 1966 21 SI WA NELLIE 1966-03-24 07:00:00 TS -16.4573 90.1844 988 bom main 1912 1912 P_____O__PP_P_ SH321966 -16.5110 90.2307 23 -1 -16.5000 90.3000 988 -16.5110 90.2307 TC 23 -16.5284 90.1986 1 22 -16.3053 90.1573 TC 50 987 7 165
1966080S10100 1966 21 SI WA NELLIE 1966-03-24 09:00:00 TS -16.7018 90.2528 main 1926 1926 P_____P__PP_P_ SH321966 -16.7425 90.2926 20 -1 -16.7631 90.4410 988 -16.7425 90.2926 TC 20 -16.7594 90.2728 1 20 -16.5351 90.2998 TC 50 987 8 165
1966080S10100 1966 21 SI WA NELLIE 1966-03-24 10:00:00 TS -16.8303 90.2889 988 bom main 1935 1935 P_____O__PP_P_ SH321966 -16.8612 90.3255 18 -1 -16.9000 90.5000 988 -16.8612 90.3255 TC 18 -16.8774 90.3127 1 20 -16.6559 90.3739 TC 50 987 8 166
1966080S10100 1966 21 SI WA NELLIE 1966-03-24 12:00:00 TS -17.0890 90.3552 main 1959 1959 O_____P__OP_O_ jtwc_sh SH321966 -17.1000 90.4000 15 -1 -17.1370 90.5447 988 -17.1000 90.4000 TC 15 -17.1170 90.3990 1 18 -16.9000 90.5000 TC 50 988 8 168
1966080S10100 1966 21 SI WA NELLIE 1966-03-24 15:00:00 TS -17.4814 90.4393 main 1992 1985 P_____P__PP_P_ SH321966 -17.4500 90.5351 15 -1 -17.4787 90.5696 988 -17.4500 90.5351 TC 15 -17.4796 90.5459 1 15 -17.2424 90.5503 TC 50 988 8 168
1966080S10100 1966 21 SI WA NELLIE 1966-03-24 16:00:00 TS -17.6120 90.4733 989 bom main 1993 1993 P_____O__PO_P_ SH321966 -17.5667 90.5867 15 -1 -17.6000 90.6000 989 -17.5667 90.5867 TC 15 -17.6000 90.6000 1 15 -17.3587 90.5595 TC 50 988 8 164
1966080S10100 1966 21 SI WA NELLIE 1966-03-24 18:00:00 TS -17.8673 90.5599 main 2011 2011 O_____P__OP_O_ jtwc_sh SH321966 -17.8000 90.7000 15 -1 -17.8649 90.7280 989 -17.8000 90.7000 TC 15 -17.8412 90.7110 1 15 -17.6000 90.6000 TC 50 989 8 161
1966080S10100 1966 21 SI WA NELLIE 1966-03-24 19:00:00 TS -17.9874 90.6141 989 bom main 2019 2018 P_____O__PP_P_ SH321966 -17.9167 90.7584 15 -1 -18.0000 90.8000 989 -17.9167 90.7584 TC 15 -17.9621 90.7703 1 16 -17.7329 90.6495 TC 49 989 8 154
1966080S10100 1966 21 SI WA NELLIE 1966-03-24 21:00:00 TS -18.2172 90.7357 main 2024 2023 P_____P__PP_P_ SH321966 -18.1500 90.8851 17 -1 -18.2667 90.9412 989 -18.1500 90.8851 TC 17 -18.2031 90.8963 1 17 -18.0075 90.7774 TC 47 989 8 153
1966080S10100 1966 21 SI WA NELLIE 1966-03-24 22:00:00 TS -18.3279 90.7997 990 bom main 2023 2021 P_____O__PP_P_ SH321966 -18.2666 90.9534 18 -1 -18.4000 91.0000 990 -18.2666 90.9534 TC 18 -18.3224 90.9626 1 17 -18.1437 90.8503 TC 46 989 8 151
1966080S10100 1966 21 SI WA NELLIE 1966-03-25 00:00:00 TS -18.5450 90.9249 main 2028 2027 O_____P__OP_O_ jtwc_sh SH321966 -18.5000 91.1000 20 -1 -18.6824 91.0564 990 -18.5000 91.1000 TC 20 -18.5570 91.1013 1 18 -18.4000 91.0000 TC 45 990 7 151
1966080S10100 1966 21 SI WA NELLIE 1966-03-25 01:00:00 TS -18.6493 90.9909 990 bom main 2027 2026 P_____O__PP_P_ SH321966 -18.6219 91.1776 20 -1 -18.8000 91.1000 990 -18.6219 91.1776 TC 20 -18.6715 91.1735 1 18 -18.5140 91.0667 TC 45 990 7 146
1966080S10100 1966 21 SI WA NELLIE 1966-03-25 03:00:00 TS -18.8432 91.1352 main 2033 2032 P_____P__PP_P_ SH321966 -18.8650 91.3425 20 -1 -18.9442 91.2970 990 -18.8650 91.3425 TC 20 -18.8934 91.3230 1 19 -18.7225 91.2001 TC 45 990 7 145
1966080S10100 1966 21 SI WA NELLIE 1966-03-25 04:00:00 TS -18.9368 91.2046 990 bom main 2032 2031 P_____O__PO_P_ SH321966 -18.9825 91.4279 20 -1 -19.0000 91.4000 990 -18.9825 91.4279 TC 20 -19.0000 91.4000 1 20 -18.8187 91.2668 TC 45 990 7 148
1966080S10100 1966 21 SI WA NELLIE 1966-03-25 06:00:00 TS -19.1242 91.3207 main 2038 2038 O_____P__OP_O_ jtwc_sh SH321966 -19.2000 91.6000 20 -1 -19.1254 91.5388 990 -19.2000 91.6000 TC 20 -19.1925 91.5478 1 18 -19.0000 91.4000 TC 45 990 6 153
1966080S10100 1966 21 SI WA NELLIE 1966-03-25 07:00:00 TS -19.2224 91.3607 990 bom main 2038 2038 P_____O__PP_P_ SH321966 -19.2921 91.6834 19 -1 -19.2000 91.6000 990 -19.2921 91.6834 TC 19 -19.2842 91.6240 1 17 -19.0864 91.4615 TC 45 990 6 162
1966080S10100 1966 21 SI WA NELLIE 1966-03-25 09:00:00 TS -19.4252 91.4245 main 2053 2053 P_____P__PP_P_ SH321966 -19.4575 91.8502 17 -1 -19.3939 91.7282 990 -19.4575 91.8502 TC 17 -19.4622 91.7817 1 15 -19.2499 91.5852 TC 45 990 6 164
1966080S10100 1966 21 SI WA NELLIE 1966-03-25 10:00:00 TS -19.5286 91.4524 990 bom main 2052 2052 P_____O__PP_P_ SH321966 -19.5363 91.9335 16 -1 -19.5000 91.8000 990 -19.5363 91.9335 TC 16 -19.5498 91.8634 1 15 -19.3308 91.6510 TC 45 990 6 166
1966080S10100 1966 21 SI WA NELLIE 1966-03-25 12:00:00 TS -19.7367 91.5127 main 2067 2075 O_____P__OP_O_ jtwc_sh SH321966 -19.7000 92.1000 15 -1 -19.7001 91.9925 990 -19.7000 92.1000 TC 15 -19.7257 92.0329 1 13 -19.5000 91.8000 TC 45 990 7 165
1966080S10100 1966 21 SI WA NELLIE 1966-03-25 15:00:00 TS -20.0577 91.6065 main 2090 2090 P_____P__PP_P_ SH321966 -19.9924 92.3426 12 -1 -20.0000 92.3092 990 -19.9924 92.3426 TC 12 -20.0019 92.3044 1 10 -19.7926 92.0999 TC 45 990 7 164
1966080S10100 1966 21 SI WA NELLIE 1966-03-25 16:00:00 TS -20.1653 91.6472 990 bom main 2098 2090 P_____O__PO_P_ SH321966 -20.0945 92.4255 11 -1 -20.1000 92.4000 990 -20.0945 92.4255 TC 11 -20.1000 92.4000 1 10 -19.8946 92.2049 TC 45 990 7 157
1966080S10100 1966 21 SI WA NELLIE 1966-03-25 18:00:00 TS -20.3777 91.7548 main 2098 2098 O_____P__OP_O_ jtwc_sh SH321966 -20.3000 92.6000 10 -1 -20.3000 92.5369 990 -20.3000 92.6000 TC 10 -20.2997 92.5563 1 14 -20.1000 92.4000 TC 45 990 7 153
1966080S10100 1966 21 SI WA NELLIE 1966-03-25 19:00:00 TS -20.4777 91.8221 990 bom main 2106 2099 P_____O__PP_P_ SH321966 -20.3921 92.6866 13 -1 -20.4000 92.6000 990 -20.3921 92.6866 TC 13 -20.4029 92.6364 1 16 -20.1946 92.4652 TC 45 990 8 142
1966080S10100 1966 21 SI WA NELLIE 1966-03-25 21:00:00 TS -20.6760 92.0011 main 2108 2100 P_____P__PP_P_ SH321966 -20.5774 92.8704 20 -1 -20.6000 92.7334 990 -20.5774 92.8704 TC 20 -20.6179 92.8084 1 20 -20.3847 92.5780 TC 45 990 8 138
1966080S10100 1966 21 SI WA NELLIE 1966-03-25 22:00:00 TS -20.7772 92.1147 990 bom main 2108 2101 P_____O__PP_P_ SH321966 -20.6762 92.9713 23 -1 -20.7000 92.8000 990 -20.6762 92.9713 TC 23 -20.7305 92.9034 1 22 -20.4840 92.6385 TC 45 990 10 131
1966080S10100 1966 21 SI WA NELLIE 1966-03-26 00:00:00 TS -20.9886 92.3917 main 2103 2096 O_____P__OP_O_ jtwc_sh SH321966 -20.9000 93.2000 30 -1 -20.8841 92.8940 990 -20.9000 93.2000 TC 30 -20.9676 93.1193 1 26 -20.7000 92.8000 TC 45 990 11 128
1966080S10100 1966 21 SI WA NELLIE 1966-03-26 01:00:00 TS -21.1046 92.5618 990 bom main 2097 2080 P_____O__PP_P_ SH321966 -21.0301 93.3147 30 -1 -21.0000 93.0000 990 -21.0301 93.3147 TC 30 -21.0929 93.2435 1 28 -20.8166 92.9059 TC 45 990 14 120
1966080S10100 1966 21 SI WA NELLIE 1966-03-26 03:00:00 TS -21.3464 93.0624 main 2080 2075 P_____P__PP_P_ SH321966 -21.3195 93.5756 32 -1 -21.3225 93.4316 990 -21.3195 93.5756 TC 32 -21.3588 93.5322 1 32 -21.0697 93.1680 TC 45 990 17 116
1966080S10100 1966 21 SI WA NELLIE 1966-03-26 04:00:00 TS -21.4725 93.3840 991 bom main 2070 2002 P_____O__PO_P_ SH321966 -21.4753 93.7290 33 -1 -21.5000 93.7000 991 -21.4753 93.7290 TC 33 -21.5000 93.7000 2 35 -21.2063 93.3259 TC 45 990 19 116
1966080S10100 1966 21 SI WA NELLIE 1966-03-26 06:00:00 TS -21.7605 93.9557 main 2002 1970 O_____P__OP_O_ jtwc_sh SH321966 -21.8000 94.1000 35 0 -21.8333 94.2359 991 -21.8000 94.1000 TC 35 -21.8003 94.1150 2 33 -21.5000 93.7000 TC 45 991 19 117
1966080S10100 1966 21 SI WA NELLIE 1966-03-26 07:00:00 TS -21.9157 94.3089 992 bom main 1970 1913 P_____O__PP_P_ SH321966 -21.9612 94.3292 34 0 -22.0000 94.5000 992 -21.9612 94.3292 TC 34 -21.9586 94.3466 2 32 -21.6554 93.9157 TC 44 991 19 122
1966080S10100 1966 21 SI WA NELLIE 1966-03-26 09:00:00 TS -22.2455 94.8073 main 1913 1888 P_____P__PP_P_ SH321966 -22.2929 94.8549 32 -1 -22.3332 94.9704 992 -22.2929 94.8549 TC 32 -22.2880 94.8457 2 30 -21.9852 94.4049 TC 42 992 17 125
1966080S10100 1966 21 SI WA NELLIE 1966-03-26 10:00:00 TS -22.4138 95.0680 993 bom main 1878 1820 P_____O__PP_P_ SH321966 -22.4615 95.1365 31 -1 -22.5000 95.2000 993 -22.4615 95.1365 TC 31 -22.4575 95.1081 2 30 -22.1559 94.6674 TC 41 992 18 125
1966080S10100 1966 21 SI WA NELLIE 1966-03-26 12:00:00 TS -22.7529 95.5987 main 1820 1731 O_____P__OP_O_ jtwc_sh SH321966 -22.8000 95.7000 30 -1 -22.8331 95.6836 993 -22.8000 95.7000 TC 30 -22.8029 95.6457 2 28 -22.5000 95.2000 TC 40 993 18 125
1966080S10100 1966 21 SI WA NELLIE 1966-03-26 15:00:00 TS -23.2582 96.3714 main 1731 1709 P_____P__PP_P_ SH321966 -23.2998 96.4804 27 -1 -23.3332 96.4398 993 -23.2998 96.4804 TC 27 -23.3265 96.4456 2 25 -22.9996 95.9506 TC 40 993 17 126
1966080S10100 1966 21 SI WA NELLIE 1966-03-26 16:00:00 TS -23.4267 96.6247 994 bom main 1709 1651 P_____O__PO_P_ SH321966 -23.4665 96.7294 26 -1 -23.5000 96.7000 994 -23.4665 96.7294 TC 26 -23.5000 96.7000 1 25 -23.1664 96.2005 TC 40 993 17 126
1966080S10100 1966 21 SI WA NELLIE 1966-03-26 18:00:00 TS -23.7611 97.1208 main 1651 1628 O_____P__OP_O_ jtwc_sh SH321966 -23.8000 97.2000 25 -1 -23.8333 97.2400 994 -23.8000 97.2000 TC 25 -23.8331 97.1848 1 22 -23.5000 96.7000 TC 40 994 17 126
1966080S10100 1966 21 SI WA NELLIE 1966-03-26 19:00:00 TS -23.9277 97.3663 995 bom main 1618 1570 P_____O__PP_P_ SH321966 -23.9664 97.4201 23 -1 -24.0000 97.5000 995 -23.9664 97.4201 TC 23 -23.9998 97.4220 1 21 -23.6666 96.9606 TC 39 994 16 127
1966080S10100 1966 21 SI WA NELLIE 1966-03-26 21:00:00 TS -24.2610 97.8336 main 1570 1548 P_____P__PP_P_ SH321966 -24.2996 97.8306 20 -1 -24.3332 97.9644 995 -24.2996 97.8306 TC 20 -24.3333 97.8806 1 18 -24.0000 97.4802 TC 37 995 16 128
1966080S10100 1966 21 SI WA NELLIE 1966-03-26 22:00:00 TS -24.4277 98.0580 996 bom main 1538 1491 P_____O__PP_P_ SH321966 -24.4663 98.0247 18 -1 -24.5000 98.2000 996 -24.4663 98.0247 TC 18 -24.5001 98.0997 1 17 -24.1667 97.7318 TC 36 995 16 130
1966080S10100 1966 21 SI WA NELLIE 1966-03-27 00:00:00 TS -24.7612 98.4946 main 1491 1469 O_____P__OP_O_ jtwc_sh SH321966 -24.8000 98.4000 15 -1 -24.8335 98.7554 996 -24.8000 98.4000 TC 15 -24.8335 98.5120 1 14 -24.5000 98.2000 TC 35 996 15 131
1966080S10100 1966 21 SI WA NELLIE 1966-03-27 01:00:00 TS -24.9277 98.7000 997 bom main 1469 1433 P_____O__PP_P_ SH321966 -24.9667 98.6022 14 -1 -25.0000 99.0000 997 -24.9667 98.6022 TC 14 -25.0002 98.7028 1 13 -24.6665 98.4247 TC 35 996 14 135
1966080S10100 1966 21 SI WA NELLIE 1966-03-27 03:00:00 TS -25.2609 99.0471 main 1433 1412 P_____P__PP_P_ SH321966 -25.3000 98.9951 12 -1 -25.3328 99.2860 998 -25.3000 98.9951 TC 12 -25.3335 99.0480 1 11 -24.9998 98.8326 TC 35 996 13 138
1966080S10100 1966 21 SI WA NELLIE 1966-03-27 04:00:00 TS -25.4276 99.1928 main 1412 1387 P_____P__PO_P_ SH321966 -25.4667 99.1783 11 -1 -25.4994 99.3634 999 -25.4667 99.1783 TC 11 -25.5000 99.2000 1 10 -25.1666 99.0104 TC 35 996 12 145
1966080S10100 1966 21 SI WA NELLIE 1966-03-27 06:00:00 TS -25.7610 99.4361 main 1387 1376 O_____P__OP_O_ jtwc_sh SH321966 -25.8000 99.5000 10 -1 -25.8331 99.4564 1000 -25.8000 99.5000 TC 10 -25.8330 99.4603 1 12 -25.5000 99.3000 TC 35 997 12 148
1966080S10100 1966 21 SI WA NELLIE 1966-03-27 07:00:00 TS -25.9276 99.5402 1001 bom main 1376 1353 P_____O__PP_P_ SH321966 -25.9666 99.6322 10 -1 -26.0000 99.5000 1001 -25.9666 99.6322 TC 10 -25.9995 99.5707 1 13 -25.6664 99.4045 TC 33 997 11 154
1966080S10100 1966 21 SI WA NELLIE 1966-03-27 09:00:00 TS -26.2573 99.7084 main 1353 1343 P_____P__PP_P_ SH321966 -26.2999 99.8474 12 -1 -26.3333 99.6327 1001 -26.2999 99.8474 TC 12 -26.3327 99.7582 1 16 -25.9996 99.5459 TC 30 999 11 157
1966080S10100 1966 21 SI WA NELLIE 1966-03-27 10:00:00 TS -26.4197 99.7696 1002 bom main 1343 1332 P_____O__PP_P_ SH321966 -26.4666 99.9373 13 -1 -26.5000 99.7000 1002 -26.4666 99.9373 TC 13 -26.4993 99.8379 1 17 -26.1663 99.5976 TC 28 1000 10 162
1966080S10100 1966 21 SI WA NELLIE 1966-03-27 12:00:00 TS -26.7429 99.8872 main 1332 1312 O_____P__OP_O_ jtwc_sh SH321966 -26.8000 100.100 15 -1 -26.8333 99.8501 1002 -26.8000 100.100 TC 15 -26.8328 99.9755 1 20 -26.5000 99.7000 TC 25 1002 10 161
1966080S10100 1966 21 SI WA NELLIE 1966-03-27 15:00:00 TS -27.2285 100.083 main 1312 1313 ______P___P_P_ SH321966 -1 -27.3333 100.106 1003 TC -27.3332 100.147 1 23 -27.0000 99.9426 TC 22 1003 10 159
1966080S10100 1966 21 SI WA NELLIE 1966-03-27 16:00:00 TS -27.3871 100.161 1004 bom main 1303 1294 ______O___O_P_ SH321966 -1 -27.5000 100.200 1004 TC -27.5000 100.200 1 25 -27.1667 100.028 TC 21 1003 11 155
1966080S10100 1966 21 SI WA NELLIE 1966-03-27 18:00:00 TS -27.7111 100.336 main 1295 1285 ______P_____O_ -1 -27.8333 100.407 1004 1 -27.5000 100.200 TC 20 1004 11 155
1966080S10100 1966 21 SI WA NELLIE 1966-03-27 19:00:00 TS -27.8778 100.422 1005 bom main 1287 1271 ______O_____P_ -1 -28.0000 100.500 1005 1 -27.6667 100.285 TC 19 1004 11 157
1966080S10100 1966 21 SI WA NELLIE 1966-03-27 21:00:00 TS -28.2234 100.581 main 1271 1272 ______P_____P_ -1 -28.3333 100.631 1005 1 -28.0001 100.452 TC 17 1005 11 158
1966080S10100 1966 21 SI WA NELLIE 1966-03-27 22:00:00 TS -28.3953 100.661 1006 bom main 1264 1257 ______O_____P_ -1 -28.5000 100.700 1006 1 -28.1667 100.535 TC 16 1005 11 156
1966080S10100 1966 21 SI WA NELLIE 1966-03-28 00:00:00 TS -28.7417 100.845 main 1259 1246 ______P_____O_ -1 -28.8334 100.890 1006 1 -28.5000 100.700 TC 15 1006 14 154
1966080S10100 1966 21 SI WA NELLIE 1966-03-28 01:00:00 NR -29.0000 101.000 1007 bom main 1246 ______O_______ -1 -29.0000 101.000 1007 1 TC 18 152

IBTrACS Databaseについて

本データベースは、米国NOAAが公開する1842年以降の世界の熱帯低気圧のベストトラックデータアーカイブInternational Best Track Archive for Climate Stewardship (IBTrACS)を、ウェブで閲覧しやすい形式に変換したものです。

最終更新日:2021-12-03